createdAt,value
2023-05-13T00:00:16.215Z,8.33
2023-05-13T00:02:43.009Z,8.28
2023-05-13T00:05:09.978Z,8.23
2023-05-13T00:07:36.636Z,8.19
2023-05-13T00:10:03.524Z,8.17
2023-05-13T00:12:31.272Z,8.14
2023-05-13T00:14:57.947Z,8.10
2023-05-13T00:17:25.099Z,8.04
2023-05-13T00:19:51.836Z,8.00
2023-05-13T00:22:18.506Z,7.94
2023-05-13T00:24:45.375Z,7.92
2023-05-13T00:27:12.237Z,7.92
2023-05-13T00:29:38.881Z,7.90
2023-05-13T00:32:06.212Z,7.89
2023-05-13T00:34:33.032Z,7.87
2023-05-13T00:37:01.038Z,7.86
2023-05-13T00:39:29.569Z,7.84
2023-05-13T00:41:56.354Z,7.78
2023-05-13T00:44:23.087Z,7.70
2023-05-13T00:46:49.719Z,7.64
2023-05-13T00:49:16.404Z,7.60
2023-05-13T00:51:43.413Z,7.57
2023-05-13T00:54:10.081Z,7.56
2023-05-13T00:56:38.388Z,7.54
2023-05-13T00:59:05.290Z,7.53
2023-05-13T01:01:50.675Z,7.52
2023-05-13T01:04:29.567Z,7.52
2023-05-13T01:06:59.215Z,7.54
2023-05-13T01:09:55.205Z,7.54
2023-05-13T01:12:33.689Z,7.50
2023-05-13T01:15:05.918Z,7.43
2023-05-13T01:17:53.053Z,7.40
2023-05-13T01:20:21.973Z,7.38
2023-05-13T01:22:49.127Z,7.39
2023-05-13T01:25:16.298Z,7.37
2023-05-13T01:27:43.301Z,7.33
2023-05-13T01:30:11.395Z,7.28
2023-05-13T01:32:38.421Z,7.17
2023-05-13T01:35:05.771Z,7.08
2023-05-13T01:37:32.955Z,7.02
2023-05-13T01:39:59.667Z,6.96
2023-05-13T01:42:29.235Z,6.90
2023-05-13T01:44:56.081Z,6.84
2023-05-13T01:47:22.905Z,6.82
2023-05-13T01:49:50.154Z,6.83
2023-05-13T01:52:16.910Z,6.86
2023-05-13T01:54:43.540Z,6.88
2023-05-13T01:57:12.484Z,6.85
2023-05-13T01:59:39.194Z,6.83
2023-05-13T02:02:06.270Z,6.83
2023-05-13T02:04:33.276Z,6.83
2023-05-13T02:07:00.168Z,6.84
2023-05-13T02:09:29.132Z,6.84
2023-05-13T02:11:55.829Z,6.83
2023-05-13T02:14:22.581Z,6.80
2023-05-13T02:16:49.422Z,6.77
2023-05-13T02:19:16.214Z,6.76
2023-05-13T02:21:43.806Z,6.71
2023-05-13T02:24:10.677Z,6.67
2023-05-13T02:26:37.307Z,6.67
2023-05-13T02:29:04.071Z,6.68
2023-05-13T02:31:31.255Z,6.66
2023-05-13T02:33:57.979Z,6.64
2023-05-13T02:36:25.028Z,6.60
2023-05-13T02:38:52.051Z,6.59
2023-05-13T02:41:19.282Z,6.59
2023-05-13T02:43:47.173Z,6.62
2023-05-13T02:46:13.868Z,6.65
2023-05-13T02:48:40.641Z,6.66
2023-05-13T02:51:07.574Z,6.66
2023-05-13T02:53:34.209Z,6.64
2023-05-13T02:56:03.264Z,6.60
2023-05-13T02:58:29.890Z,6.58
2023-05-13T03:00:56.615Z,6.55
2023-05-13T03:03:24.409Z,6.51
2023-05-13T03:05:51.560Z,6.47
2023-05-13T03:08:18.254Z,6.47
2023-05-13T03:10:44.964Z,6.46
2023-05-13T03:13:12.423Z,6.46
2023-05-13T03:15:39.594Z,6.48
2023-05-13T03:18:07.036Z,6.50
2023-05-13T03:20:34.130Z,6.51
2023-05-13T03:23:02.047Z,6.55
2023-05-13T03:25:29.051Z,6.62
2023-05-13T03:27:57.486Z,6.71
2023-05-13T03:30:26.231Z,6.79
2023-05-13T03:33:01.135Z,6.90
2023-05-13T03:35:28.048Z,7.01
2023-05-13T03:37:55.465Z,7.12
2023-05-13T03:40:22.516Z,7.24
2023-05-13T03:42:50.168Z,7.36
2023-05-13T03:45:17.606Z,7.47
2023-05-13T03:47:44.894Z,7.58
2023-05-13T03:50:13.912Z,7.71
2023-05-13T03:52:43.959Z,7.83
2023-05-13T03:55:14.959Z,7.97
2023-05-13T03:57:44.927Z,8.10
2023-05-13T04:00:12.435Z,8.22
2023-05-13T04:02:41.933Z,8.35
2023-05-13T04:05:09.603Z,8.49
2023-05-13T04:07:36.367Z,8.63
2023-05-13T04:10:03.273Z,8.81
2023-05-13T04:12:30.989Z,9.00
2023-05-13T04:14:57.682Z,9.20
2023-05-13T04:17:24.467Z,9.40
2023-05-13T04:19:54.854Z,9.64
2023-05-13T04:22:21.910Z,9.86
2023-05-13T04:24:52.145Z,10.04
2023-05-13T04:27:18.944Z,10.20
2023-05-13T04:29:46.411Z,10.38
2023-05-13T04:32:16.326Z,10.53
2023-05-13T04:34:43.453Z,10.69
2023-05-13T04:37:10.101Z,10.83
2023-05-13T04:39:36.767Z,10.97
2023-05-13T04:42:03.849Z,11.12
2023-05-13T04:44:33.205Z,11.29
2023-05-13T04:46:59.909Z,11.45
2023-05-13T04:49:26.621Z,11.59
2023-05-13T04:51:53.836Z,11.74
2023-05-13T04:54:21.201Z,11.87
2023-05-13T04:57:39.277Z,12.05
2023-05-13T05:00:08.443Z,12.15
2023-05-13T05:02:37.454Z,12.27
2023-05-13T05:05:05.350Z,12.37
2023-05-13T05:07:33.505Z,12.49
2023-05-13T05:10:00.190Z,12.62
2023-05-13T05:12:27.511Z,12.74
2023-05-13T05:14:54.167Z,12.87
2023-05-13T05:17:21.293Z,13.01
2023-05-13T05:19:47.984Z,13.13
2023-05-13T05:22:15.215Z,13.25
2023-05-13T05:24:41.955Z,13.37
2023-05-13T05:27:09.160Z,13.51
2023-05-13T05:29:35.972Z,13.64
2023-05-13T05:32:02.720Z,13.78
2023-05-13T05:34:29.482Z,13.92
2023-05-13T05:36:56.218Z,14.06
2023-05-13T05:39:23.152Z,14.19
2023-05-13T05:41:49.950Z,14.31
2023-05-13T05:44:17.080Z,14.43
2023-05-13T05:46:44.288Z,14.55
2023-05-13T05:49:11.243Z,14.65
2023-05-13T05:51:38.006Z,14.77
2023-05-13T05:54:05.833Z,14.89
2023-05-13T05:56:32.655Z,15.01
2023-05-13T05:59:00.002Z,15.12
2023-05-13T06:01:27.822Z,15.24
2023-05-13T06:03:55.413Z,15.37
2023-05-13T06:06:22.347Z,15.50
2023-05-13T06:08:49.000Z,15.63
2023-05-13T06:11:15.862Z,15.76
2023-05-13T06:13:44.084Z,15.86
2023-05-13T06:16:10.994Z,15.98
2023-05-13T06:18:38.015Z,16.07
2023-05-13T06:21:05.001Z,16.16
2023-05-13T06:23:31.733Z,16.23
2023-05-13T06:25:59.405Z,16.34
2023-05-13T06:28:26.076Z,16.42
2023-05-13T06:30:53.921Z,16.50
2023-05-13T06:33:20.722Z,16.58
2023-05-13T06:35:49.740Z,16.64
2023-05-13T06:38:18.015Z,16.70
2023-05-13T06:40:45.675Z,16.74
2023-05-13T06:43:14.717Z,16.80
2023-05-13T06:45:45.762Z,16.87
2023-05-13T06:48:13.599Z,16.94
2023-05-13T06:50:41.028Z,17.05
2023-05-13T06:53:09.566Z,17.15
2023-05-13T06:55:41.550Z,17.22
2023-05-13T06:58:08.927Z,17.26
2023-05-13T07:00:40.026Z,17.33
2023-05-13T07:03:07.190Z,17.39
2023-05-13T07:05:34.093Z,17.47
2023-05-13T07:08:01.780Z,17.58
2023-05-13T07:10:28.435Z,17.71
2023-05-13T07:12:55.154Z,17.83
2023-05-13T07:15:21.990Z,17.95
2023-05-13T07:17:48.867Z,18.06
2023-05-13T07:20:16.274Z,18.17
2023-05-13T07:22:42.964Z,18.24
2023-05-13T07:25:10.917Z,18.32
2023-05-13T07:27:37.768Z,18.42
2023-05-13T07:30:04.911Z,18.49
2023-05-13T07:32:32.008Z,18.55
2023-05-13T07:34:58.796Z,18.63
2023-05-13T07:37:25.487Z,18.71
2023-05-13T07:39:52.246Z,18.79
2023-05-13T07:42:19.364Z,18.88
2023-05-13T07:44:46.151Z,18.97
2023-05-13T07:47:13.801Z,19.05
2023-05-13T07:49:40.641Z,19.10
2023-05-13T07:52:07.873Z,19.14
2023-05-13T07:54:34.489Z,19.21
2023-05-13T07:57:01.176Z,19.28
2023-05-13T07:59:27.830Z,19.32
2023-05-13T08:01:54.492Z,19.32
2023-05-13T08:04:21.639Z,19.34
2023-05-13T08:06:48.556Z,19.39
2023-05-13T08:09:15.395Z,19.40
2023-05-13T08:11:42.097Z,19.44
2023-05-13T08:14:08.723Z,19.50
2023-05-13T08:16:36.453Z,19.54
2023-05-13T08:19:04.128Z,19.60
2023-05-13T08:21:31.882Z,19.65
2023-05-13T08:23:58.550Z,19.63
2023-05-13T08:26:25.279Z,19.62
2023-05-13T08:28:54.777Z,19.69
2023-05-13T08:31:22.237Z,19.76
2023-05-13T08:33:49.094Z,19.85
2023-05-13T08:36:16.059Z,19.95
2023-05-13T08:38:43.683Z,20.06
2023-05-13T08:41:16.680Z,20.15
2023-05-13T08:43:43.686Z,20.21
2023-05-13T08:46:11.342Z,20.24
2023-05-13T08:48:41.526Z,20.27
2023-05-13T08:51:09.013Z,20.26
2023-05-13T08:53:35.978Z,20.27
2023-05-13T08:56:02.633Z,20.33
2023-05-13T08:58:29.360Z,20.40
2023-05-13T09:00:56.130Z,20.48
2023-05-13T09:03:22.930Z,20.55
2023-05-13T09:05:49.582Z,20.59
2023-05-13T09:08:16.548Z,20.62
2023-05-13T09:10:43.236Z,20.58
2023-05-13T09:13:11.592Z,20.51
2023-05-13T09:15:38.253Z,20.44
2023-05-13T09:18:05.800Z,20.46
2023-05-13T09:20:32.595Z,20.52
2023-05-13T09:23:07.327Z,20.58
2023-05-13T09:25:34.304Z,20.64
2023-05-13T09:28:02.613Z,20.71
2023-05-13T09:30:33.758Z,20.75
2023-05-13T09:33:10.620Z,20.78
2023-05-13T09:35:44.871Z,20.85
2023-05-13T09:38:15.819Z,20.88
2023-05-13T09:40:52.924Z,20.95
2023-05-13T09:43:26.653Z,21.04
2023-05-13T09:45:57.895Z,21.14
2023-05-13T09:48:27.412Z,21.24
2023-05-13T09:50:55.404Z,21.29
2023-05-13T09:53:22.126Z,21.24
2023-05-13T09:55:49.821Z,21.23
2023-05-13T09:58:16.594Z,21.27
2023-05-13T10:00:43.855Z,21.35
2023-05-13T10:03:11.799Z,21.44
2023-05-13T10:05:40.352Z,21.52
2023-05-13T10:08:11.961Z,21.56
2023-05-13T10:10:38.985Z,21.59
2023-05-13T10:13:07.512Z,21.65
2023-05-13T10:15:34.497Z,21.71
2023-05-13T10:18:01.473Z,21.76
2023-05-13T10:20:28.244Z,21.82
2023-05-13T10:22:55.444Z,21.88
2023-05-13T10:25:22.542Z,21.94
2023-05-13T10:27:49.271Z,22.00
2023-05-13T10:30:16.195Z,22.06
2023-05-13T10:32:43.124Z,22.09
2023-05-13T10:35:11.125Z,21.99
2023-05-13T10:37:54.432Z,21.87
2023-05-13T10:40:43.431Z,21.76
2023-05-13T10:43:29.412Z,21.65
2023-05-13T10:45:57.648Z,21.47
2023-05-13T10:48:24.508Z,21.35
2023-05-13T10:51:01.317Z,21.32
2023-05-13T10:53:29.800Z,21.30
2023-05-13T10:55:57.459Z,21.30
2023-05-13T10:58:34.278Z,21.32
2023-05-13T11:01:28.521Z,21.37
2023-05-13T11:04:01.145Z,21.42
2023-05-13T11:06:38.482Z,21.46
2023-05-13T11:09:11.816Z,21.51
2023-05-13T11:11:38.735Z,21.61
2023-05-13T11:14:14.400Z,21.70
2023-05-13T11:17:00.433Z,21.77
2023-05-13T11:19:29.045Z,21.78
2023-05-13T11:22:04.770Z,21.74
2023-05-13T11:24:31.399Z,21.66
2023-05-13T11:26:59.191Z,21.61
2023-05-13T11:29:30.597Z,21.55
2023-05-13T11:32:00.265Z,21.48
2023-05-13T11:34:27.535Z,21.41
2023-05-13T11:37:03.452Z,21.37
2023-05-13T11:39:30.293Z,21.33
2023-05-13T11:41:57.481Z,21.35
2023-05-13T11:44:25.072Z,21.39
2023-05-13T11:46:52.448Z,21.39
2023-05-13T11:49:38.928Z,21.42
2023-05-13T11:52:08.958Z,21.45
2023-05-13T11:54:55.467Z,21.42
2023-05-13T11:57:32.412Z,21.42
2023-05-13T12:00:04.956Z,21.46
2023-05-13T12:02:40.672Z,21.51
2023-05-13T12:05:08.952Z,21.55
2023-05-13T12:07:36.236Z,21.58
2023-05-13T12:10:03.827Z,21.58
2023-05-13T12:12:31.247Z,21.57
2023-05-13T12:15:02.773Z,21.55
2023-05-13T12:17:30.458Z,21.52
2023-05-13T12:20:16.197Z,21.54
2023-05-13T12:22:42.994Z,21.60
2023-05-13T12:25:35.010Z,21.65
2023-05-13T12:28:21.144Z,21.68
2023-05-13T12:31:01.850Z,21.69
2023-05-13T12:33:54.982Z,21.74
2023-05-13T12:36:25.965Z,21.82
2023-05-13T12:38:59.561Z,21.90
2023-05-13T12:41:28.966Z,21.95
2023-05-13T12:43:57.742Z,21.97
2023-05-13T12:46:24.791Z,22.00
2023-05-13T12:49:01.739Z,22.03
2023-05-13T12:51:29.657Z,22.08
2023-05-13T12:53:56.693Z,22.14
2023-05-13T12:56:23.698Z,22.21
2023-05-13T12:58:50.646Z,22.25
2023-05-13T13:01:17.391Z,22.27
2023-05-13T13:03:44.475Z,22.30
2023-05-13T13:06:12.171Z,22.32
2023-05-13T13:08:39.077Z,22.35
2023-05-13T13:11:06.283Z,22.39
2023-05-13T13:13:33.148Z,22.42
2023-05-13T13:16:00.225Z,22.47
2023-05-13T13:18:27.184Z,22.50
2023-05-13T13:20:54.699Z,22.52
2023-05-13T13:23:21.385Z,22.52
2023-05-13T13:25:48.090Z,22.50
2023-05-13T13:28:14.852Z,22.47
2023-05-13T13:30:46.352Z,22.43
2023-05-13T13:33:14.893Z,22.38
2023-05-13T13:35:43.676Z,22.31
2023-05-13T13:38:10.404Z,22.23
2023-05-13T13:40:37.112Z,22.14
2023-05-13T13:43:05.751Z,22.06
2023-05-13T13:45:32.444Z,21.99
2023-05-13T13:47:59.557Z,21.92
2023-05-13T13:50:26.555Z,21.85
2023-05-13T13:52:53.292Z,21.80
2023-05-13T13:55:21.030Z,21.76
2023-05-13T13:57:48.061Z,21.71
2023-05-13T14:00:15.578Z,21.66
2023-05-13T14:02:43.213Z,21.62
2023-05-13T14:05:11.340Z,21.58
2023-05-13T14:07:38.229Z,21.57
2023-05-13T14:10:05.739Z,21.54
2023-05-13T14:12:32.498Z,21.52
2023-05-13T14:14:59.872Z,21.51
2023-05-13T14:17:26.663Z,21.49
2023-05-13T14:19:55.347Z,21.48
2023-05-13T14:22:23.738Z,21.46
2023-05-13T14:24:53.609Z,21.44
2023-05-13T14:27:20.892Z,21.42
2023-05-13T14:29:47.808Z,21.42
2023-05-13T14:32:14.623Z,21.40
2023-05-13T14:34:41.472Z,21.40
2023-05-13T14:37:08.528Z,21.42
2023-05-13T14:39:35.310Z,21.44
2023-05-13T14:42:02.036Z,21.46
2023-05-13T14:44:28.660Z,21.47
2023-05-13T14:46:56.047Z,21.49
2023-05-13T14:49:22.760Z,21.52
2023-05-13T14:51:49.412Z,21.55
2023-05-13T14:54:17.852Z,21.57
2023-05-13T14:56:45.033Z,21.60
2023-05-13T14:59:11.768Z,21.62
2023-05-13T15:01:38.752Z,21.64
2023-05-13T15:04:06.026Z,21.66
2023-05-13T15:06:33.178Z,21.66
2023-05-13T15:08:59.974Z,21.65
2023-05-13T15:11:28.046Z,21.63
2023-05-13T15:13:54.900Z,21.57
2023-05-13T15:16:22.025Z,21.51
2023-05-13T15:18:50.363Z,21.41
2023-05-13T15:21:17.707Z,21.30
2023-05-13T15:23:44.552Z,21.19
2023-05-13T15:26:11.266Z,21.09
2023-05-13T15:28:38.007Z,21.00
2023-05-13T15:31:05.698Z,20.91
2023-05-13T15:33:32.792Z,20.80
2023-05-13T15:35:59.877Z,20.71
2023-05-13T15:38:27.168Z,20.65
2023-05-13T15:40:53.876Z,20.57
2023-05-13T15:43:20.855Z,20.49
2023-05-13T15:45:47.748Z,20.43
2023-05-13T15:48:14.526Z,20.36
2023-05-13T15:50:41.350Z,20.31
2023-05-13T15:53:08.129Z,20.26
2023-05-13T15:55:37.012Z,20.21
2023-05-13T15:58:03.782Z,20.16
2023-05-13T16:00:31.225Z,20.12
2023-05-13T16:02:57.965Z,20.09
2023-05-13T16:05:24.654Z,20.04
2023-05-13T16:07:51.385Z,19.99
2023-05-13T16:10:18.088Z,19.93
2023-05-13T16:12:44.815Z,19.88
2023-05-13T16:15:11.805Z,19.82
2023-05-13T16:17:38.477Z,19.77
2023-05-13T16:20:06.093Z,19.71
2023-05-13T16:22:34.860Z,19.65
2023-05-13T16:25:02.959Z,19.58
2023-05-13T16:27:29.735Z,19.51
2023-05-13T16:29:57.550Z,19.44
2023-05-13T16:32:24.937Z,19.36
2023-05-13T16:34:52.066Z,19.29
2023-05-13T16:37:18.796Z,19.21
2023-05-13T16:39:45.886Z,19.14
2023-05-13T16:42:12.658Z,19.07
2023-05-13T16:44:39.378Z,18.98
2023-05-13T16:47:07.209Z,18.89
2023-05-13T16:49:35.179Z,18.79
2023-05-13T16:52:05.554Z,18.68
2023-05-13T16:54:32.298Z,18.56
2023-05-13T16:56:59.259Z,18.43
2023-05-13T16:59:26.768Z,18.33
2023-05-13T17:01:53.593Z,18.23
2023-05-13T17:04:20.792Z,18.12
2023-05-13T17:06:47.452Z,18.02
2023-05-13T17:09:14.206Z,17.92
2023-05-13T17:14:32.540Z,17.73
2023-05-13T17:16:59.283Z,17.60
2023-05-13T17:19:26.148Z,17.48
2023-05-13T17:21:52.765Z,17.35
2023-05-13T17:24:22.395Z,17.23
2023-05-13T17:26:49.974Z,17.14
2023-05-13T17:29:16.621Z,17.04
2023-05-13T17:31:43.342Z,16.95
2023-05-13T17:34:10.113Z,16.84
2023-05-13T17:36:36.821Z,16.73
2023-05-13T17:39:03.623Z,16.64
2023-05-13T17:41:30.531Z,16.53
2023-05-13T17:43:57.180Z,16.43
2023-05-13T17:46:24.055Z,16.35
2023-05-13T17:48:50.791Z,16.25
2023-05-13T17:51:17.636Z,16.18
2023-05-13T17:53:44.372Z,16.10
2023-05-13T17:56:11.543Z,16.01
2023-05-13T17:58:38.291Z,15.89
2023-05-13T18:01:05.035Z,15.78
2023-05-13T18:03:31.710Z,15.67
2023-05-13T18:05:58.460Z,15.59
2023-05-13T18:08:25.214Z,15.49
2023-05-13T18:10:51.875Z,15.38
2023-05-13T18:13:18.588Z,15.28
2023-05-13T18:15:45.298Z,15.20
2023-05-13T18:18:12.107Z,15.12
2023-05-13T18:20:40.351Z,15.05
2023-05-13T18:23:07.108Z,14.96
2023-05-13T18:25:39.981Z,14.88
2023-05-13T18:28:12.427Z,14.79
2023-05-13T18:30:39.150Z,14.70
2023-05-13T18:33:06.103Z,14.61
2023-05-13T18:35:32.821Z,14.43
2023-05-13T18:37:59.526Z,14.22
2023-05-13T18:40:26.166Z,14.11
2023-05-13T18:42:53.040Z,14.00
2023-05-13T18:45:19.718Z,13.92
2023-05-13T18:47:46.425Z,13.88
2023-05-13T18:50:13.120Z,13.85
2023-05-13T18:52:40.699Z,13.80
2023-05-13T18:55:08.034Z,13.74
2023-05-13T18:57:34.735Z,13.70
2023-05-13T19:00:01.352Z,13.65
2023-05-13T19:02:28.307Z,13.58
2023-05-13T19:04:55.115Z,13.52
2023-05-13T19:07:21.861Z,13.46
2023-05-13T19:09:48.578Z,13.39
2023-05-13T19:12:15.246Z,13.31
2023-05-13T19:14:41.936Z,13.25
2023-05-13T19:17:08.599Z,13.22
2023-05-13T19:19:35.407Z,13.19
2023-05-13T19:22:02.395Z,13.14
2023-05-13T19:24:29.206Z,13.06
2023-05-13T19:26:55.840Z,12.99
2023-05-13T19:29:22.485Z,12.93
2023-05-13T19:31:49.253Z,12.85
2023-05-13T19:34:16.009Z,12.78
2023-05-13T19:36:44.605Z,12.73
2023-05-13T19:39:11.642Z,12.70
2023-05-13T19:41:38.890Z,12.69
2023-05-13T19:44:05.588Z,12.67
2023-05-13T19:46:32.387Z,12.68
2023-05-13T19:48:59.129Z,12.68
2023-05-13T19:51:26.808Z,12.66
2023-05-13T19:53:53.500Z,12.63
2023-05-13T19:56:20.234Z,12.59
2023-05-13T19:58:46.890Z,12.56
2023-05-13T20:01:14.949Z,12.52
2023-05-13T20:03:41.998Z,12.50
2023-05-13T20:06:08.766Z,12.52
2023-05-13T20:08:35.934Z,12.53
2023-05-13T20:11:02.818Z,12.55
2023-05-13T20:13:29.471Z,12.54
2023-05-13T20:15:56.123Z,12.50
2023-05-13T20:18:22.871Z,12.50
2023-05-13T20:20:49.719Z,12.50
2023-05-13T20:23:16.352Z,12.49
2023-05-13T20:25:43.025Z,12.45
2023-05-13T20:28:09.634Z,12.40
2023-05-13T20:30:36.497Z,12.34
2023-05-13T20:33:03.404Z,12.30
2023-05-13T20:35:30.352Z,12.28
2023-05-13T20:37:58.587Z,12.26
2023-05-13T20:40:25.385Z,12.26
2023-05-13T20:42:52.550Z,12.25
2023-05-13T20:45:19.244Z,12.25
2023-05-13T20:47:46.090Z,12.26
2023-05-13T20:50:12.826Z,12.26
2023-05-13T20:52:39.633Z,12.27
2023-05-13T20:55:06.956Z,12.30
2023-05-13T20:57:33.651Z,12.35
2023-05-13T21:00:00.357Z,12.40
2023-05-13T21:02:27.141Z,12.45
2023-05-13T21:04:53.982Z,12.48
2023-05-13T21:07:20.836Z,12.47
2023-05-13T21:09:47.501Z,12.45
2023-05-13T21:12:14.151Z,12.45
2023-05-13T21:14:41.280Z,12.46
2023-05-13T21:17:08.416Z,12.47
2023-05-13T21:19:35.357Z,12.49
2023-05-13T21:22:05.226Z,12.50
2023-05-13T21:24:32.097Z,12.50
2023-05-13T21:26:58.814Z,12.50
2023-05-13T21:29:25.514Z,12.49
2023-05-13T21:31:52.242Z,12.49
2023-05-13T21:34:18.943Z,12.47
2023-05-13T21:36:45.871Z,12.47
2023-05-13T21:39:12.716Z,12.50
2023-05-13T21:41:40.102Z,12.54
2023-05-13T21:44:06.801Z,12.59
2023-05-13T21:46:33.522Z,12.64
2023-05-13T21:49:00.580Z,12.66
2023-05-13T21:51:27.502Z,12.69
2023-05-13T21:53:54.286Z,12.72
2023-05-13T21:56:21.659Z,12.75
2023-05-13T21:58:49.148Z,12.78
2023-05-13T22:01:15.989Z,12.81
2023-05-13T22:03:42.716Z,12.83
2023-05-13T22:06:09.370Z,12.85
2023-05-13T22:08:36.282Z,12.88
2023-05-13T22:11:03.024Z,12.90
2023-05-13T22:13:29.790Z,12.89
2023-05-13T22:15:56.455Z,12.87
2023-05-13T22:18:23.878Z,12.84
2023-05-13T22:20:51.320Z,12.81
2023-05-13T22:23:17.950Z,12.79
2023-05-13T22:25:44.620Z,12.77
2023-05-13T22:28:11.325Z,12.77
2023-05-13T22:30:37.988Z,12.79
2023-05-13T22:33:04.742Z,12.83
2023-05-13T22:35:32.133Z,12.86
2023-05-13T22:37:58.914Z,12.84
2023-05-13T22:40:26.007Z,12.78
2023-05-13T22:42:52.844Z,12.77
2023-05-13T22:45:19.701Z,12.78
2023-05-13T22:47:47.832Z,12.80
2023-05-13T22:50:14.618Z,12.81
2023-05-13T22:52:41.282Z,12.83
2023-05-13T22:55:08.834Z,12.86
2023-05-13T22:57:35.460Z,12.88
2023-05-13T23:00:02.232Z,12.86
2023-05-13T23:02:28.934Z,12.83
2023-05-13T23:04:55.767Z,12.80
2023-05-13T23:07:22.479Z,12.75
2023-05-13T23:09:49.104Z,12.71
2023-05-13T23:12:15.919Z,12.66
2023-05-13T23:14:42.591Z,12.62
2023-05-13T23:17:09.340Z,12.58
2023-05-13T23:19:38.144Z,12.56
2023-05-13T23:22:04.966Z,12.54
2023-05-13T23:24:31.737Z,12.52
2023-05-13T23:26:58.588Z,12.50
2023-05-13T23:29:27.661Z,12.50
2023-05-13T23:31:55.381Z,12.50
2023-05-13T23:34:22.328Z,12.49
2023-05-13T23:36:49.040Z,12.48
2023-05-13T23:39:15.766Z,12.47
2023-05-13T23:41:42.676Z,12.47
2023-05-13T23:44:09.395Z,12.48
2023-05-13T23:46:36.027Z,12.47
2023-05-13T23:49:02.730Z,12.47
2023-05-13T23:51:29.396Z,12.47
2023-05-13T23:53:56.032Z,12.43
2023-05-13T23:56:22.711Z,12.41
2023-05-13T23:58:49.413Z,12.39
